Time;durP1;ratioP1;P1;durP2;ratioP2;P2;SDS_P1;SDS_P2;PMS_P1;PMS_P2;Temp;Humidity;BMP_temperature;BMP_pressure;BME280_temperature;BME280_humidity;BME280_pressure;Samples;Min_cycle;Max_cycle;Signal;HPM_P1;HPM_P2
2022/06/21 20:39:19;;;;;;;9.43;2.55;;;;;;;28.15;41.34;100790.72;6079396;23;883381;-44
2022/06/21 20:42:04;;;;;;;8.75;2.72;;;;;;;28.12;41.43;100790.78;6123319;23;20032;-44
2022/06/21 20:44:35;;;;;;;9.23;2.22;;;;;;;28.15;41.40;100802.19;6096836;23;20330;-43
2022/06/21 20:47:06;;;;;;;6.45;2.38;;;;;;;28.16;41.36;100805.66;6096848;23;20017;-42
2022/06/21 20:49:38;;;;;;;6.18;2.08;;;;;;;28.21;41.27;100801.25;6096406;23;20013;-47
2022/06/21 20:52:28;;;;;;;8.05;2.65;;;;;;;28.26;41.27;100806.47;6098145;23;20010;-43
2022/06/21 20:55:20;;;;;;;9.20;2.95;;;;;;;28.21;41.42;100811.78;6122851;23;20014;-44
2022/06/21 20:58:07;;;;;;;9.48;2.65;;;;;;;28.18;41.34;100812.72;6123530;23;20021;-46
2022/06/21 21:00:42;;;;;;;7.38;2.53;;;;;;;28.18;41.19;100806.53;6097179;23;20006;-42
2022/06/21 21:03:13;;;;;;;7.32;2.22;;;;;;;28.14;41.42;100805.69;6096990;23;20009;-43
2022/06/21 21:05:44;;;;;;;7.40;2.65;;;;;;;28.15;41.41;100803.91;6121354;23;20009;-43
2022/06/21 21:08:18;;;;;;;8.77;2.30;;;;;;;28.07;41.54;100805.72;6122546;23;20009;-46
2022/06/21 21:10:51;;;;;;;8.68;2.78;;;;;;;28.15;41.36;100814.47;6121328;23;20006;-42
2022/06/21 21:13:27;;;;;;;5.93;2.07;;;;;;;28.08;41.30;100789.88;6121319;23;20096;-42
2022/06/21 21:16:01;;;;;;;7.00;2.58;;;;;;;28.13;41.01;100798.66;6097228;23;20413;-43
2022/06/21 21:18:38;;;;;;;7.82;2.88;;;;;;;28.12;40.96;100806.59;6097229;23;20535;-45
2022/06/21 21:21:09;;;;;;;6.93;2.17;;;;;;;28.09;41.28;100802.16;6097425;23;20006;-43
2022/06/21 21:23:40;;;;;;;8.57;2.28;;;;;;;28.10;41.04;100798.69;6096950;23;20006;-44
2022/06/21 21:26:18;;;;;;;10.20;3.17;;;;;;;28.03;41.24;100789.91;6122802;23;20006;-44
2022/06/21 21:28:50;;;;;;;9.25;2.63;;;;;;;28.12;41.13;100791.63;6073417;23;20010;-43
2022/06/21 21:31:36;;;;;;;8.98;2.65;;;;;;;28.10;41.26;100782.00;6122577;23;20358;-43
2022/06/21 21:34:28;;;;;;;4.88;2.00;;;;;;;28.00;41.05;100774.09;6122534;23;20002;-43
2022/06/21 21:37:01;;;;;;;7.32;2.63;;;;;;;28.01;41.16;100780.28;6122623;23;20002;-42
2022/06/21 21:39:50;;;;;;;10.93;2.80;;;;;;;27.90;41.25;100775.06;6091460;23;20345;-42
2022/06/21 21:42:56;;;;;;;7.95;2.28;;;;;;;27.91;41.14;100766.28;6111183;23;20018;-43
2022/06/21 21:45:25;;;;;;;6.15;2.17;;;;;;;27.93;41.14;100748.69;6086715;23;20038;-50
2022/06/21 21:47:54;;;;;;;6.25;2.30;;;;;;;27.94;41.19;100753.06;6092853;23;20018;-43
2022/06/21 21:50:23;;;;;;;5.40;2.13;;;;;;;27.96;41.13;100750.41;6092108;23;19999;-43
2022/06/21 21:52:53;;;;;;;5.45;2.30;;;;;;;27.93;41.13;100747.78;6092280;23;20426;-43
2022/06/21 21:55:24;;;;;;;5.93;1.90;;;;;;;27.97;41.05;100752.16;6091905;23;20013;-44
2022/06/21 21:57:55;;;;;;;6.97;2.10;;;;;;;27.97;40.92;100746.91;6093258;23;20010;-45
2022/06/21 22:00:34;;;;;;;3.67;1.45;;;;;;;27.92;41.26;100738.13;6116092;23;20049;-43
2022/06/21 22:03:12;;;;;;;3.20;1.30;;;;;;;27.95;40.94;100749.56;6094244;23;20330;-43
2022/06/21 22:05:48;;;;;;;8.68;2.30;;;;;;;27.86;40.76;100726.78;6091809;23;20452;-44
2022/06/21 22:08:22;;;;;;;6.72;2.05;;;;;;;27.92;41.12;100746.94;6092911;23;20069;-44
2022/06/21 22:10:52;;;;;;;;;;;;;;;27.89;40.99;100753.09;6092414;23;20006;-43
2022/06/21 22:13:40;;;;;;;4.35;1.90;;;;;;;27.90;41.06;100749.56;6067662;23;19988;-43
2022/06/21 22:16:46;;;;;;;5.10;2.03;;;;;;;27.97;40.83;100747.75;6093855;23;20003;-42
2022/06/21 22:19:21;;;;;;;6.47;2.05;;;;;;;27.89;40.72;100739.03;6092577;23;20010;-43
2022/06/21 22:21:51;;;;;;;5.43;2.22;;;;;;;27.90;41.11;100741.66;6093899;23;20030;-43
2022/06/21 22:24:23;;;;;;;4.55;1.83;;;;;;;27.90;40.90;100746.06;6092370;23;20007;-44
2022/06/21 22:26:53;;;;;;;5.47;1.88;;;;;;;27.89;40.73;100746.94;6093269;23;20425;-43
2022/06/21 22:29:25;;;;;;;10.07;2.25;;;;;;;27.84;40.95;100736.44;6093077;23;20060;-42
2022/06/21 22:31:59;;;;;;;7.70;2.60;;;;;;;27.92;40.89;100746.03;6093319;23;20357;-43
2022/06/21 22:34:30;;;;;;;7.03;2.17;;;;;;;27.83;41.01;100746.97;6091558;23;20014;-43
2022/06/21 22:37:03;;;;;;;6.75;2.10;;;;;;;27.79;40.79;100740.00;6091718;23;20006;-46
2022/06/21 22:39:36;;;;;;;7.18;2.28;;;;;;;27.78;40.98;100741.75;6098798;22;20344;-43
2022/06/21 22:42:05;;;;;;;6.40;2.05;;;;;;;27.70;41.33;100748.84;6122440;23;20032;-43
2022/06/21 22:44:43;;;;;;;8.25;2.17;;;;;;;27.73;40.89;100756.72;6120581;23;20002;-43
2022/06/21 22:47:18;;;;;;;5.50;2.28;;;;;;;27.73;40.95;100761.97;6096236;23;20037;-42
2022/06/21 22:49:49;;;;;;;8.55;1.95;;;;;;;27.65;40.92;100756.75;6095802;23;20042;-43
2022/06/21 22:52:24;;;;;;;4.78;1.90;;;;;;;27.67;40.92;100754.13;6120645;23;20006;-43
2022/06/21 22:54:52;;;;;;;6.43;2.42;;;;;;;27.65;41.00;100753.25;6096898;23;20033;-42
2022/06/21 22:57:42;;;;;;;6.22;2.22;;;;;;;27.68;41.08;100748.84;6121046;23;20492;-43
2022/06/21 23:00:18;;;;;;;5.20;2.40;;;;;;;27.71;40.84;100746.19;6110353;23;20013;-43
2022/06/21 23:02:50;;;;;;;5.05;2.03;;;;;;;27.77;40.62;100752.31;6120356;23;20010;-44
2022/06/21 23:05:56;;;;;;;5.30;2.00;;;;;;;27.70;40.82;100747.06;6096186;23;20038;-48
2022/06/21 23:08:27;;;;;;;5.57;2.00;;;;;;;27.80;40.48;100753.16;6122338;23;20018;-45
2022/06/21 23:11:00;;;;;;;6.43;1.90;;;;;;;27.75;40.65;100744.41;6096703;23;20440;-43
2022/06/21 23:13:36;;;;;;;5.40;2.05;;;;;;;27.70;40.60;100746.22;6120757;23;20012;-45
2022/06/21 23:16:13;;;;;;;4.85;1.95;;;;;;;27.68;40.42;100735.66;6121730;23;20034;-44
2022/06/21 23:18:43;;;;;;;7.38;2.20;;;;;;;27.65;40.67;100732.19;6096091;23;20006;-44
2022/06/21 23:21:12;;;;;;;6.38;1.98;;;;;;;27.68;40.55;100734.81;6120377;23;20010;-42
2022/06/21 23:23:41;;;;;;;7.32;2.42;;;;;;;27.66;40.61;100737.44;6122215;23;20010;-44
2022/06/21 23:26:18;;;;;;;5.07;1.80;;;;;;;27.69;40.62;100739.19;6120473;23;20077;-42
2022/06/21 23:28:47;;;;;;;4.78;1.70;;;;;;;27.64;40.68;100723.38;6120375;23;20033;-45
2022/06/21 23:31:17;;;;;;;7.35;2.42;;;;;;;27.75;40.51;100721.56;6121336;23;20006;-45
2022/06/21 23:33:46;;;;;;;3.78;1.70;;;;;;;27.66;40.37;100712.84;6097027;23;20010;-43
2022/06/21 23:36:19;;;;;;;6.15;1.83;;;;;;;27.66;40.57;100721.63;6123123;23;20060;-43
2022/06/21 23:38:55;;;;;;;5.38;1.85;;;;;;;27.66;40.41;100716.34;6122539;23;20105;-44
2022/06/21 23:41:23;;;;;;;7.00;2.00;;;;;;;27.68;40.58;100717.22;6123215;23;20024;-47
2022/06/21 23:44:06;;;;;;;4.28;1.83;;;;;;;27.51;40.66;100704.16;6097629;23;20017;-43
2022/06/21 23:46:50;;;;;;;5.45;1.92;;;;;;;27.43;40.48;100693.63;6121587;23;20081;-46
2022/06/21 23:49:29;;;;;;;4.78;1.65;;;;;;;27.59;40.47;100706.75;6122733;23;20437;-47
2022/06/21 23:51:59;;;;;;;2.90;1.58;;;;;;;27.60;40.48;100714.63;6097493;23;20417;-43
2022/06/21 23:54:28;;;;;;;6.38;2.25;;;;;;;27.52;40.53;100705.03;6096917;23;20041;-44
2022/06/21 23:56:59;;;;;;;4.18;1.70;;;;;;;27.44;40.50;100705.94;6124116;23;20013;-43
2022/06/21 23:59:29;;;;;;;4.90;1.80;;;;;;;27.56;40.35;100705.00;6122723;23;20440;-43
